createdAt,value
2019-05-26T00:02:45.373Z,72.40
2019-05-26T00:07:03.789Z,72.50
2019-05-26T00:11:22.426Z,72.50
2019-05-26T00:15:41.151Z,72.30
2019-05-26T00:19:59.256Z,72.30
2019-05-26T00:24:17.840Z,72.10
2019-05-26T00:28:36.131Z,73.00
2019-05-26T00:32:55.369Z,72.10
2019-05-26T00:37:13.983Z,71.80
2019-05-26T00:41:32.459Z,71.90
2019-05-26T00:45:50.632Z,72.00
2019-05-26T00:50:11.365Z,72.10
2019-05-26T00:54:29.601Z,72.00
2019-05-26T00:58:48.073Z,71.90
2019-05-26T01:03:06.320Z,71.80
2019-05-26T01:07:24.622Z,71.80
2019-05-26T01:11:43.284Z,71.80
2019-05-26T01:16:01.937Z,71.70
2019-05-26T01:20:20.848Z,71.70
2019-05-26T01:24:39.370Z,71.70
2019-05-26T01:28:57.507Z,71.60
2019-05-26T01:33:15.670Z,71.50
2019-05-26T01:37:34.573Z,71.40
2019-05-26T01:41:53.105Z,71.40
2019-05-26T01:46:11.316Z,71.50
2019-05-26T01:50:29.783Z,71.60
2019-05-26T01:54:48.749Z,72.50
2019-05-26T01:59:08.031Z,71.80
2019-05-26T02:03:26.005Z,71.50
2019-05-26T02:07:44.758Z,71.50
2019-05-26T02:12:03.099Z,71.50
2019-05-26T02:16:21.223Z,71.60
2019-05-26T02:20:39.405Z,71.70
2019-05-26T02:24:57.680Z,71.70
2019-05-26T02:29:15.867Z,71.80
2019-05-26T02:33:34.314Z,71.90
2019-05-26T02:37:52.518Z,72.00
2019-05-26T02:42:10.633Z,72.00
2019-05-26T02:46:29.173Z,71.80
2019-05-26T02:50:47.497Z,71.80
2019-05-26T02:55:05.847Z,71.90
2019-05-26T02:59:24.359Z,71.90
2019-05-26T03:03:42.872Z,72.10
2019-05-26T03:08:02.926Z,72.00
2019-05-26T03:12:25.137Z,72.10
2019-05-26T03:16:46.744Z,72.10
2019-05-26T03:21:06.077Z,72.00
2019-05-26T03:25:24.550Z,72.10
2019-05-26T03:29:42.666Z,72.10
2019-05-26T03:34:01.084Z,72.20
2019-05-26T03:38:19.297Z,72.30
2019-05-26T03:42:37.454Z,72.30
2019-05-26T03:46:56.963Z,72.20
2019-05-26T03:51:15.761Z,72.30
2019-05-26T03:55:33.995Z,72.60
2019-05-26T03:59:52.505Z,73.50
2019-05-26T04:04:10.647Z,74.40
2019-05-26T04:08:28.745Z,75.20
2019-05-26T04:12:46.873Z,75.60
2019-05-26T04:17:05.117Z,76.10
2019-05-26T04:21:23.335Z,76.80
2019-05-26T04:25:41.461Z,77.20
2019-05-26T04:30:00.325Z,77.60
2019-05-26T04:34:18.738Z,78.00
2019-05-26T04:38:36.890Z,78.50
2019-05-26T04:42:54.991Z,78.60
2019-05-26T04:47:13.249Z,78.30
2019-05-26T04:51:32.082Z,78.80
2019-05-26T04:55:50.581Z,79.20
2019-05-26T05:00:10.680Z,79.30
2019-05-26T05:04:29.712Z,79.10
2019-05-26T05:08:47.989Z,79.40
2019-05-26T05:13:06.004Z,79.90
2019-05-26T05:17:24.574Z,79.90
2019-05-26T05:21:42.784Z,80.20
2019-05-26T05:26:00.966Z,80.30
2019-05-26T05:30:20.960Z,80.30
2019-05-26T05:34:40.012Z,80.80
2019-05-26T05:38:58.240Z,81.10
2019-05-26T05:43:16.652Z,80.60
2019-05-26T05:47:34.793Z,80.50
2019-05-26T05:51:53.363Z,80.30
2019-05-26T05:56:11.546Z,80.50
2019-05-26T06:00:29.938Z,80.60
2019-05-26T06:04:48.125Z,80.40
2019-05-26T06:09:07.719Z,80.30
2019-05-26T06:13:25.853Z,79.70
2019-05-26T06:17:44.018Z,78.80
2019-05-26T06:22:02.174Z,77.90
2019-05-26T06:26:21.136Z,77.30
2019-05-26T06:30:39.260Z,75.80
2019-05-26T06:34:57.930Z,74.60
2019-05-26T06:39:16.188Z,73.50
2019-05-26T06:43:34.335Z,72.90
2019-05-26T06:47:52.432Z,71.60
2019-05-26T06:52:11.093Z,71.30
2019-05-26T06:56:29.557Z,70.90
2019-05-26T07:00:47.686Z,71.00
2019-05-26T07:05:06.304Z,70.50
2019-05-26T07:09:24.580Z,71.00
2019-05-26T07:13:42.934Z,71.00
2019-05-26T07:18:01.116Z,71.20
2019-05-26T07:22:20.529Z,70.40
2019-05-26T07:26:38.731Z,67.60
2019-05-26T07:30:56.983Z,67.30
2019-05-26T07:35:15.596Z,67.80
2019-05-26T07:39:34.219Z,68.50
2019-05-26T07:43:53.011Z,69.00
2019-05-26T07:48:11.314Z,68.10
2019-05-26T07:52:29.833Z,67.40
2019-05-26T07:56:48.278Z,64.80
2019-05-26T08:01:06.450Z,64.50
2019-05-26T08:05:25.655Z,64.70
2019-05-26T08:09:44.252Z,65.90
2019-05-26T08:14:02.476Z,66.00
2019-05-26T08:18:20.669Z,66.40
2019-05-26T08:22:39.705Z,66.20
2019-05-26T08:26:57.904Z,66.10
2019-05-26T08:31:16.202Z,65.80
2019-05-26T08:35:34.373Z,65.10
2019-05-26T08:39:52.654Z,64.80
2019-05-26T08:44:10.962Z,64.00
2019-05-26T08:48:30.210Z,64.40
2019-05-26T08:52:48.471Z,62.00
2019-05-26T08:57:06.868Z,59.80
2019-05-26T09:01:25.831Z,62.10
2019-05-26T09:05:44.408Z,63.90
2019-05-26T09:10:03.420Z,63.90
2019-05-26T09:14:25.381Z,64.10
2019-05-26T09:18:42.212Z,62.50
2019-05-26T09:23:00.686Z,62.80
2019-05-26T09:27:19.031Z,61.90
2019-05-26T09:31:37.501Z,62.90
2019-05-26T09:35:55.777Z,63.50
2019-05-26T09:40:15.001Z,63.40
2019-05-26T09:44:34.806Z,62.70
2019-05-26T09:48:53.878Z,61.20
2019-05-26T09:53:12.608Z,60.80
2019-05-26T09:57:30.857Z,61.00
2019-05-26T10:01:49.411Z,61.10
2019-05-26T10:06:07.961Z,62.00
2019-05-26T10:10:27.005Z,61.70
2019-05-26T10:14:47.737Z,61.30
2019-05-26T10:19:05.329Z,58.20
2019-05-26T10:23:23.634Z,57.20
2019-05-26T10:27:42.053Z,58.00
2019-05-26T10:32:01.540Z,58.80
2019-05-26T10:36:19.889Z,60.00
2019-05-26T10:40:38.011Z,59.90
2019-05-26T10:44:56.372Z,58.20
2019-05-26T10:49:14.513Z,54.90
2019-05-26T10:53:34.205Z,54.10
2019-05-26T10:57:52.401Z,54.10
2019-05-26T11:02:10.565Z,54.10
2019-05-26T11:06:29.138Z,55.00
2019-05-26T11:10:47.458Z,55.40
2019-05-26T11:15:06.774Z,56.20
2019-05-26T11:19:25.516Z,56.90
2019-05-26T11:23:44.039Z,57.40
2019-05-26T11:28:02.314Z,57.30
2019-05-26T11:32:20.570Z,58.40
2019-05-26T11:36:39.248Z,60.40
2019-05-26T11:40:58.568Z,61.00
2019-05-26T11:45:19.116Z,59.10
2019-05-26T11:49:37.707Z,58.90
2019-05-26T11:53:55.856Z,62.00
2019-05-26T11:58:14.339Z,63.20
2019-05-26T12:02:32.414Z,62.80
2019-05-26T12:06:50.718Z,62.80
2019-05-26T12:11:08.946Z,64.10
2019-05-26T12:15:27.520Z,61.00
2019-05-26T12:19:46.087Z,58.70
2019-05-26T12:24:04.717Z,57.60
2019-05-26T12:28:22.866Z,57.50
2019-05-26T12:32:41.169Z,57.10
2019-05-26T12:36:59.363Z,55.40
2019-05-26T12:41:18.270Z,55.20
2019-05-26T12:45:37.265Z,56.00
2019-05-26T12:49:56.031Z,55.10
2019-05-26T12:54:15.291Z,54.60
2019-05-26T12:58:33.629Z,56.80
2019-05-26T13:02:51.925Z,56.10
2019-05-26T13:07:10.442Z,55.00
2019-05-26T13:11:28.728Z,54.60
2019-05-26T13:15:47.042Z,54.20
2019-05-26T13:20:05.964Z,53.30
2019-05-26T13:24:24.519Z,52.80
2019-05-26T13:28:42.992Z,52.90
2019-05-26T13:33:01.134Z,53.40
2019-05-26T13:37:19.647Z,53.30
2019-05-26T13:41:37.885Z,53.90
2019-05-26T13:45:56.850Z,53.70
2019-05-26T13:50:15.909Z,52.90
2019-05-26T13:54:35.441Z,51.50
2019-05-26T13:58:53.709Z,51.60
2019-05-26T14:03:13.654Z,49.90
2019-05-26T14:07:31.911Z,50.50
2019-05-26T14:11:50.040Z,51.20
2019-05-26T14:16:08.183Z,49.70
2019-05-26T14:20:40.123Z,49.50
2019-05-26T14:24:58.532Z,50.00
2019-05-26T14:29:16.886Z,49.80
2019-05-26T14:33:35.634Z,50.30
2019-05-26T14:37:54.922Z,50.00
2019-05-26T14:42:13.734Z,49.90
2019-05-26T14:46:32.527Z,50.90
2019-05-26T14:50:51.439Z,50.60
2019-05-26T14:55:11.627Z,51.00
2019-05-26T14:59:30.003Z,51.00
2019-05-26T15:03:49.499Z,51.10
2019-05-26T15:08:07.739Z,51.10
2019-05-26T15:12:27.193Z,50.80
2019-05-26T15:16:46.478Z,49.50
2019-05-26T15:21:05.559Z,49.30
2019-05-26T15:25:24.695Z,49.00
2019-05-26T15:29:44.256Z,49.20
2019-05-26T15:34:04.348Z,49.90
2019-05-26T15:38:23.756Z,50.10
2019-05-26T15:42:44.225Z,50.20
2019-05-26T15:47:03.650Z,50.20
2019-05-26T15:51:22.663Z,48.30
2019-05-26T15:55:42.116Z,49.10
2019-05-26T16:00:00.832Z,48.80
2019-05-26T16:04:19.834Z,49.00
2019-05-26T16:08:38.606Z,48.50
2019-05-26T16:12:57.195Z,48.50
2019-05-26T16:17:16.508Z,49.40
2019-05-26T16:21:34.806Z,49.20
2019-05-26T16:25:53.159Z,48.00
2019-05-26T16:30:12.432Z,49.00
2019-05-26T16:34:30.765Z,49.10
2019-05-26T16:38:49.284Z,48.90
2019-05-26T16:43:07.742Z,48.60
2019-05-26T16:47:26.175Z,48.80
2019-05-26T16:51:44.790Z,48.80
2019-05-26T16:56:03.078Z,48.80
2019-05-26T17:00:21.902Z,48.90
2019-05-26T17:04:40.536Z,49.10
2019-05-26T17:09:00.327Z,48.90
2019-05-26T17:13:19.929Z,48.60
2019-05-26T17:17:38.108Z,46.90
2019-05-26T17:21:56.337Z,47.60
2019-05-26T17:26:16.111Z,47.40
2019-05-26T17:30:34.265Z,46.60
2019-05-26T17:34:52.830Z,46.00
2019-05-26T17:39:11.181Z,46.60
2019-05-26T17:43:29.467Z,46.70
2019-05-26T17:47:48.119Z,47.00
2019-05-26T17:52:06.657Z,46.80
2019-05-26T17:56:24.893Z,46.50
2019-05-26T18:00:43.331Z,46.90
2019-05-26T18:05:02.421Z,46.70
2019-05-26T18:09:21.245Z,45.90
2019-05-26T18:13:39.395Z,46.20
2019-05-26T18:17:57.676Z,46.20
2019-05-26T18:22:16.169Z,46.30
2019-05-26T18:26:34.447Z,46.00
2019-05-26T18:30:53.530Z,45.40
2019-05-26T18:35:12.348Z,46.00
2019-05-26T18:39:30.786Z,46.20
2019-05-26T18:43:49.391Z,46.30
2019-05-26T18:48:07.572Z,46.40
2019-05-26T18:52:25.949Z,46.50
2019-05-26T18:56:44.201Z,46.50
2019-05-26T19:01:02.325Z,46.50
2019-05-26T19:05:32.895Z,46.50
2019-05-26T19:09:41.663Z,46.50
2019-05-26T19:14:00.017Z,46.70
2019-05-26T19:18:20.267Z,46.60
2019-05-26T19:22:38.614Z,46.80
2019-05-26T19:26:57.188Z,46.90
2019-05-26T19:31:15.978Z,47.00
2019-05-26T19:35:34.313Z,47.10
2019-05-26T19:39:53.075Z,47.10
2019-05-26T19:44:11.239Z,47.20
2019-05-26T19:48:37.028Z,47.30
2019-05-26T19:52:53.300Z,48.00
2019-05-26T19:57:12.026Z,47.40
2019-05-26T20:01:30.544Z,47.50
2019-05-26T20:05:49.514Z,47.70
2019-05-26T20:10:10.532Z,47.80
2019-05-26T20:14:29.565Z,47.80
2019-05-26T20:18:48.196Z,48.00
2019-05-26T20:23:06.486Z,48.20
2019-05-26T20:27:25.937Z,48.40
2019-05-26T20:31:44.585Z,48.60
2019-05-26T20:36:03.540Z,48.70
2019-05-26T20:40:23.236Z,48.80
2019-05-26T20:44:42.018Z,48.90
2019-05-26T20:49:00.551Z,48.80
2019-05-26T20:53:19.912Z,48.90
2019-05-26T20:57:38.798Z,48.90
2019-05-26T21:01:57.239Z,48.90
2019-05-26T21:06:16.335Z,49.00
2019-05-26T21:10:35.175Z,49.00
2019-05-26T21:14:53.847Z,49.00
2019-05-26T21:19:12.402Z,49.00
2019-05-26T21:23:32.326Z,49.10
2019-05-26T21:27:51.132Z,49.10
2019-05-26T21:32:09.406Z,49.10
2019-05-26T21:36:27.709Z,49.20
2019-05-26T21:40:46.071Z,49.20
2019-05-26T21:45:04.347Z,49.20
2019-05-26T21:49:22.628Z,49.30
2019-05-26T21:53:40.884Z,49.30
2019-05-26T21:57:59.284Z,49.30
2019-05-26T22:02:17.506Z,49.30
2019-05-26T22:06:36.123Z,49.40
2019-05-26T22:10:54.682Z,49.60
2019-05-26T22:15:15.914Z,49.60
2019-05-26T22:19:34.260Z,49.70
2019-05-26T22:23:52.939Z,49.70
2019-05-26T22:28:11.544Z,49.70
2019-05-26T22:32:29.688Z,49.90
2019-05-26T22:36:47.984Z,50.00
2019-05-26T22:41:06.197Z,50.00
2019-05-26T22:45:24.400Z,50.00
2019-05-26T22:49:42.944Z,50.00
2019-05-26T22:54:01.080Z,50.00
2019-05-26T22:58:19.282Z,50.00
2019-05-26T23:02:37.432Z,50.10
2019-05-26T23:06:55.582Z,50.20
2019-05-26T23:11:14.249Z,50.20
2019-05-26T23:15:33.085Z,50.10
2019-05-26T23:19:51.463Z,50.20
2019-05-26T23:24:09.766Z,50.30
2019-05-26T23:28:27.869Z,50.40
2019-05-26T23:32:47.186Z,50.40
2019-05-26T23:37:05.789Z,50.40
2019-05-26T23:41:23.882Z,50.50
2019-05-26T23:45:43.113Z,50.50
2019-05-26T23:50:01.996Z,50.60
2019-05-26T23:54:20.344Z,50.60
2019-05-26T23:58:38.524Z,50.90
